createdAt,value
2022-08-03T00:00:01.985Z,18.58
2022-08-03T00:01:01.945Z,18.55
2022-08-03T00:02:01.936Z,18.53
2022-08-03T00:03:01.974Z,18.53
2022-08-03T00:04:01.917Z,18.53
2022-08-03T00:05:01.908Z,18.52
2022-08-03T00:06:03.696Z,18.52
2022-08-03T00:07:01.888Z,18.50
2022-08-03T00:08:01.875Z,18.49
2022-08-03T00:09:01.866Z,18.45
2022-08-03T00:10:01.849Z,18.45
2022-08-03T00:11:01.852Z,18.43
2022-08-03T00:12:01.847Z,18.40
2022-08-03T00:13:01.826Z,18.38
2022-08-03T00:14:01.810Z,18.35
2022-08-03T00:15:01.798Z,18.31
2022-08-03T00:16:01.789Z,18.26
2022-08-03T00:17:01.830Z,18.23
2022-08-03T00:18:01.768Z,18.22
2022-08-03T00:19:02.220Z,18.20
2022-08-03T00:20:01.746Z,18.22
2022-08-03T00:21:01.728Z,18.20
2022-08-03T00:22:01.727Z,18.20
2022-08-03T00:23:01.749Z,18.18
2022-08-03T00:24:01.701Z,18.15
2022-08-03T00:25:01.693Z,18.13
2022-08-03T00:26:01.681Z,18.10
2022-08-03T00:27:01.668Z,18.07
2022-08-03T00:28:01.658Z,18.04
2022-08-03T00:29:01.669Z,18.00
2022-08-03T00:30:01.640Z,17.95
2022-08-03T00:31:01.629Z,17.90
2022-08-03T00:32:01.609Z,17.87
2022-08-03T00:33:01.608Z,17.85
2022-08-03T00:34:03.565Z,17.80
2022-08-03T00:35:07.857Z,17.79
2022-08-03T00:36:02.568Z,17.78
2022-08-03T00:37:01.570Z,17.79
2022-08-03T00:38:01.571Z,17.80
2022-08-03T00:39:01.541Z,17.79
2022-08-03T00:40:01.563Z,17.83
2022-08-03T00:41:01.518Z,17.86
2022-08-03T00:42:01.501Z,17.86
2022-08-03T00:43:01.498Z,17.89
2022-08-03T00:44:01.486Z,17.90
2022-08-03T00:45:01.470Z,17.94
2022-08-03T00:46:01.481Z,17.94
2022-08-03T00:47:01.451Z,17.92
2022-08-03T00:48:01.444Z,17.92
2022-08-03T00:49:01.522Z,17.87
2022-08-03T00:50:01.420Z,17.86
2022-08-03T00:51:01.433Z,17.82
2022-08-03T00:52:01.400Z,17.79
2022-08-03T00:53:02.390Z,17.79
2022-08-03T00:54:01.381Z,17.78
2022-08-03T00:55:01.365Z,17.72
2022-08-03T00:56:01.353Z,17.72
2022-08-03T00:57:01.373Z,17.70
2022-08-03T00:58:01.333Z,17.70
2022-08-03T00:59:01.329Z,17.67
2022-08-03T01:00:01.323Z,17.65
2022-08-03T01:01:01.366Z,17.60
2022-08-03T01:02:01.292Z,17.60
2022-08-03T01:03:01.293Z,17.60
2022-08-03T01:04:01.276Z,17.60
2022-08-03T01:05:01.263Z,17.63
2022-08-03T01:06:01.247Z,17.67
2022-08-03T01:07:01.233Z,17.63
2022-08-03T01:08:01.244Z,17.63
2022-08-03T01:09:01.213Z,17.59
2022-08-03T01:10:01.204Z,17.54
2022-08-03T01:11:01.192Z,17.46
2022-08-03T01:12:01.815Z,17.44
2022-08-03T01:13:01.302Z,17.39
2022-08-03T01:14:17.966Z,17.38
2022-08-03T01:15:02.144Z,17.34
2022-08-03T01:16:01.137Z,17.31
2022-08-03T01:17:01.126Z,17.26
2022-08-03T01:18:01.114Z,17.24
2022-08-03T01:19:01.102Z,17.20
2022-08-03T01:20:01.872Z,17.19
2022-08-03T01:21:01.087Z,17.19
2022-08-03T01:22:01.065Z,17.11
2022-08-03T01:23:01.064Z,17.09
2022-08-03T01:24:01.036Z,17.08
2022-08-03T01:25:01.035Z,17.06
2022-08-03T01:26:01.045Z,17.06
2022-08-03T01:27:01.005Z,17.04
2022-08-03T01:28:00.996Z,17.02
2022-08-03T01:29:00.989Z,17.01
2022-08-03T01:30:00.975Z,16.99
2022-08-03T01:31:00.964Z,16.96
2022-08-03T01:32:53.269Z,16.93
2022-08-03T01:33:02.169Z,16.89
2022-08-03T01:34:01.024Z,16.86
2022-08-03T01:35:00.929Z,16.86
2022-08-03T01:36:00.905Z,16.81
2022-08-03T01:37:00.900Z,16.84
2022-08-03T01:38:00.905Z,16.84
2022-08-03T01:39:00.876Z,16.84
2022-08-03T01:40:00.857Z,16.84
2022-08-03T01:41:00.877Z,16.81
2022-08-03T01:42:00.837Z,16.83
2022-08-03T01:43:00.826Z,16.79
2022-08-03T01:44:29.220Z,16.84
2022-08-03T01:45:01.808Z,16.86
2022-08-03T01:46:00.796Z,16.90
2022-08-03T01:47:00.785Z,16.93
2022-08-03T01:48:00.767Z,16.93
2022-08-03T01:49:00.976Z,16.93
2022-08-03T01:50:01.766Z,16.93
2022-08-03T01:51:00.739Z,16.94
2022-08-03T01:52:05.011Z,16.94
2022-08-03T01:53:00.716Z,16.94
2022-08-03T01:54:00.697Z,16.93
2022-08-03T01:55:00.697Z,16.93
2022-08-03T01:56:00.697Z,16.93
2022-08-03T01:57:00.677Z,16.93
2022-08-03T01:58:04.588Z,16.91
2022-08-03T01:59:01.648Z,16.90
2022-08-03T02:00:00.627Z,16.87
2022-08-03T02:01:00.746Z,16.86
2022-08-03T02:02:15.399Z,16.83
2022-08-03T02:03:01.626Z,16.79
2022-08-03T02:04:01.267Z,16.79
2022-08-03T02:05:00.578Z,16.78
2022-08-03T02:06:11.734Z,16.76
2022-08-03T02:07:03.318Z,16.75
2022-08-03T02:08:00.539Z,16.76
2022-08-03T02:09:00.529Z,16.76
2022-08-03T02:10:00.520Z,16.76
2022-08-03T02:11:00.510Z,16.75
2022-08-03T02:12:00.526Z,16.74
2022-08-03T02:13:00.508Z,16.72
2022-08-03T02:14:00.469Z,16.68
2022-08-03T02:15:00.945Z,16.66
2022-08-03T02:16:00.449Z,16.66
2022-08-03T02:17:00.439Z,16.66
2022-08-03T02:18:00.446Z,16.68
2022-08-03T02:19:00.417Z,16.69
2022-08-03T02:20:00.400Z,16.66
2022-08-03T02:21:00.398Z,16.68
2022-08-03T02:22:01.277Z,16.68
2022-08-03T02:23:00.374Z,16.66
2022-08-03T02:24:00.369Z,16.61
2022-08-03T02:25:00.380Z,16.58
2022-08-03T02:26:00.330Z,16.57
2022-08-03T02:27:00.327Z,16.57
2022-08-03T02:28:00.314Z,16.56
2022-08-03T02:29:00.330Z,16.57
2022-08-03T02:30:00.291Z,16.57
2022-08-03T02:31:01.019Z,16.58
2022-08-03T02:32:00.261Z,16.61
2022-08-03T02:33:00.354Z,16.61
2022-08-03T02:34:00.255Z,16.61
2022-08-03T02:35:00.250Z,16.61
2022-08-03T02:36:00.303Z,16.60
2022-08-03T02:37:00.218Z,16.61
2022-08-03T02:38:00.199Z,16.61
2022-08-03T02:39:00.200Z,16.60
2022-08-03T02:40:00.191Z,16.60
2022-08-03T02:41:00.179Z,16.57
2022-08-03T02:42:00.175Z,16.60
2022-08-03T02:43:00.150Z,16.60
2022-08-03T02:44:06.472Z,16.64
2022-08-03T02:45:01.172Z,16.61
2022-08-03T02:46:00.111Z,16.60
2022-08-03T02:47:00.214Z,16.58
2022-08-03T02:48:00.083Z,16.57
2022-08-03T02:49:00.114Z,16.51
2022-08-03T02:50:01.095Z,16.53
2022-08-03T02:51:00.282Z,16.47
2022-08-03T02:52:00.043Z,16.43
2022-08-03T02:53:00.032Z,16.39
2022-08-03T02:54:00.020Z,16.36
2022-08-03T02:55:00.006Z,16.35
2022-08-03T02:55:59.999Z,16.35
2022-08-03T02:57:00.012Z,16.32
2022-08-03T02:58:01.422Z,16.31
2022-08-03T02:58:59.962Z,16.31
2022-08-03T02:59:59.952Z,16.31
2022-08-03T03:00:59.971Z,16.31
2022-08-03T03:01:59.943Z,16.32
2022-08-03T03:03:00.316Z,16.31
2022-08-03T03:03:59.909Z,16.31
2022-08-03T03:05:54.984Z,16.31
2022-08-03T03:06:00.943Z,16.31
2022-08-03T03:06:59.873Z,16.31
2022-08-03T03:07:59.873Z,16.31
2022-08-03T03:09:00.047Z,16.29
2022-08-03T03:09:59.836Z,16.28
2022-08-03T03:10:59.823Z,16.24
2022-08-03T03:11:59.811Z,16.24
2022-08-03T03:12:59.833Z,16.23
2022-08-03T03:13:59.836Z,16.21
2022-08-03T03:14:59.783Z,16.16
2022-08-03T03:15:59.774Z,16.13
2022-08-03T03:16:59.753Z,16.10
2022-08-03T03:17:59.743Z,16.10
2022-08-03T03:18:59.754Z,16.13
2022-08-03T03:19:59.725Z,16.12
2022-08-03T03:20:59.713Z,16.13
2022-08-03T03:21:59.695Z,16.10
2022-08-03T03:22:59.698Z,16.10
2022-08-03T03:23:59.742Z,16.12
2022-08-03T03:25:00.424Z,16.15
2022-08-03T03:25:59.655Z,16.16
2022-08-03T03:26:59.644Z,16.16
2022-08-03T03:27:59.633Z,16.16
2022-08-03T03:28:59.625Z,16.12
2022-08-03T03:29:59.604Z,16.10
2022-08-03T03:30:59.615Z,16.09
2022-08-03T03:31:59.585Z,16.05
2022-08-03T03:32:59.580Z,16.01
2022-08-03T03:33:59.565Z,15.98
2022-08-03T03:34:59.553Z,15.97
2022-08-03T03:35:59.567Z,15.95
2022-08-03T03:36:59.527Z,15.90
2022-08-03T03:37:59.514Z,15.88
2022-08-03T03:38:59.518Z,15.83
2022-08-03T03:40:00.495Z,15.82
2022-08-03T03:40:59.487Z,15.83
2022-08-03T03:41:59.486Z,15.79
2022-08-03T03:42:59.465Z,15.82
2022-08-03T03:44:06.491Z,15.82
2022-08-03T03:44:59.483Z,15.79
2022-08-03T03:45:59.422Z,15.79
2022-08-03T03:46:59.422Z,15.79
2022-08-03T03:47:59.432Z,15.79
2022-08-03T03:48:59.422Z,15.77
2022-08-03T03:49:59.422Z,15.76
2022-08-03T03:50:59.372Z,15.75
2022-08-03T03:51:59.361Z,15.73
2022-08-03T03:52:59.353Z,15.70
2022-08-03T03:53:59.353Z,15.73
2022-08-03T03:55:01.214Z,15.75
2022-08-03T03:56:02.411Z,15.76
2022-08-03T03:56:59.302Z,15.76
2022-08-03T03:57:59.290Z,15.75
2022-08-03T03:58:59.324Z,15.73
2022-08-03T03:59:59.263Z,15.75
2022-08-03T04:00:59.311Z,15.75
2022-08-03T04:01:59.457Z,15.77
2022-08-03T04:02:59.233Z,15.77
2022-08-03T04:03:59.223Z,15.79
2022-08-03T04:04:59.243Z,15.82
2022-08-03T04:05:59.203Z,15.84
2022-08-03T04:06:59.192Z,15.88
2022-08-03T04:07:59.174Z,15.90
2022-08-03T04:08:59.162Z,15.90
2022-08-03T04:09:59.260Z,15.91
2022-08-03T04:11:00.165Z,15.92
2022-08-03T04:11:59.137Z,15.91
2022-08-03T04:12:59.124Z,15.92
2022-08-03T04:14:02.059Z,15.92
2022-08-03T04:14:59.103Z,15.92
2022-08-03T04:15:59.091Z,15.91
2022-08-03T04:16:59.108Z,15.91
2022-08-03T04:17:59.074Z,15.91
2022-08-03T04:18:59.521Z,15.91
2022-08-03T04:19:59.054Z,15.91
2022-08-03T04:20:59.036Z,15.88
2022-08-03T04:21:59.023Z,15.88
2022-08-03T04:22:59.026Z,15.88
2022-08-03T04:23:59.003Z,15.90
2022-08-03T04:24:58.984Z,15.94
2022-08-03T04:25:58.984Z,15.95
2022-08-03T04:26:58.965Z,15.97
2022-08-03T04:28:28.294Z,15.98
2022-08-03T04:28:59.944Z,15.98
2022-08-03T04:29:58.934Z,16.01
2022-08-03T04:30:58.928Z,16.04
2022-08-03T04:31:58.905Z,16.05
2022-08-03T04:32:58.894Z,16.08
2022-08-03T04:33:58.907Z,16.05
2022-08-03T04:34:58.875Z,16.08
2022-08-03T04:36:02.557Z,16.10
2022-08-03T04:36:58.846Z,16.13
2022-08-03T04:37:58.836Z,16.16
2022-08-03T04:38:58.833Z,16.16
2022-08-03T04:39:58.837Z,16.17
2022-08-03T04:40:58.809Z,16.20
2022-08-03T04:42:07.284Z,16.21
2022-08-03T04:42:59.787Z,16.24
2022-08-03T04:43:58.778Z,16.28
2022-08-03T04:45:01.338Z,16.32
2022-08-03T04:45:58.776Z,16.35
2022-08-03T04:46:58.739Z,16.39
2022-08-03T04:47:58.728Z,16.42
2022-08-03T04:48:58.741Z,16.46
2022-08-03T04:49:58.707Z,16.50
2022-08-03T04:50:58.696Z,16.54
2022-08-03T04:51:58.698Z,16.57
2022-08-03T04:52:58.676Z,16.61
2022-08-03T04:53:58.666Z,16.65
2022-08-03T04:54:58.651Z,16.66
2022-08-03T04:55:59.277Z,16.69
2022-08-03T04:56:58.648Z,16.72
2022-08-03T04:57:59.459Z,16.75
2022-08-03T04:58:58.599Z,16.75
2022-08-03T05:00:03.004Z,16.76
2022-08-03T05:00:59.586Z,16.78
2022-08-03T05:01:58.777Z,16.79
2022-08-03T05:02:58.579Z,16.81
2022-08-03T05:03:58.548Z,16.83
2022-08-03T05:04:58.539Z,16.86
2022-08-03T05:06:01.694Z,16.84
2022-08-03T05:06:59.509Z,16.87
2022-08-03T05:08:00.753Z,16.90
2022-08-03T05:08:58.488Z,16.93
2022-08-03T05:10:02.943Z,16.99
2022-08-03T05:10:59.574Z,17.02
2022-08-03T05:11:58.458Z,17.06
2022-08-03T05:12:58.439Z,17.12
2022-08-03T05:13:58.451Z,17.16
2022-08-03T05:14:58.418Z,17.22
2022-08-03T05:15:58.410Z,17.26
2022-08-03T05:16:58.399Z,17.31
2022-08-03T05:17:58.390Z,17.36
2022-08-03T05:18:58.399Z,17.45
2022-08-03T05:19:58.423Z,17.51
2022-08-03T05:20:58.369Z,17.57
2022-08-03T05:21:58.339Z,17.65
2022-08-03T05:22:58.339Z,17.70
2022-08-03T05:23:58.330Z,17.76
2022-08-03T05:24:58.322Z,17.83
2022-08-03T05:25:58.301Z,17.87
2022-08-03T05:26:58.290Z,17.92
2022-08-03T05:27:58.279Z,17.95
2022-08-03T05:28:58.261Z,18.01
2022-08-03T05:30:30.907Z,18.07
2022-08-03T05:30:59.240Z,18.11
2022-08-03T05:31:58.231Z,18.16
2022-08-03T05:32:58.222Z,18.20
2022-08-03T05:33:58.209Z,18.26
2022-08-03T05:34:58.211Z,18.31
2022-08-03T05:36:03.538Z,18.37
2022-08-03T05:36:59.172Z,18.43
2022-08-03T05:37:58.163Z,18.52
2022-08-03T05:39:02.489Z,18.59
2022-08-03T05:39:58.154Z,18.66
2022-08-03T05:41:22.581Z,18.73
2022-08-03T05:41:59.152Z,18.78
2022-08-03T05:42:58.113Z,18.84
2022-08-03T05:43:58.109Z,18.90
2022-08-03T05:44:58.083Z,18.99
2022-08-03T05:46:11.437Z,19.00
2022-08-03T05:46:59.063Z,19.08
2022-08-03T05:47:58.082Z,19.18
2022-08-03T05:48:58.106Z,19.26
2022-08-03T05:49:58.034Z,19.29
2022-08-03T05:50:58.013Z,19.36
2022-08-03T05:52:00.493Z,19.48
2022-08-03T05:52:59.022Z,19.48
2022-08-03T05:53:57.986Z,19.59
2022-08-03T05:54:57.985Z,19.73
2022-08-03T05:56:02.349Z,19.82
2022-08-03T05:56:58.944Z,19.94
2022-08-03T05:57:57.934Z,20.09
2022-08-03T05:58:57.945Z,20.16
2022-08-03T05:59:58.618Z,20.24
2022-08-03T06:00:57.904Z,20.36
2022-08-03T06:01:57.941Z,20.55
2022-08-03T06:02:57.875Z,20.72
2022-08-03T06:03:57.875Z,20.95
2022-08-03T06:04:57.905Z,21.18
2022-08-03T06:06:00.395Z,21.51
2022-08-03T06:06:57.848Z,21.95
2022-08-03T06:07:57.827Z,22.63
2022-08-03T06:08:57.816Z,23.62
2022-08-03T06:10:36.387Z,24.63
2022-08-03T06:10:58.808Z,25.41
2022-08-03T06:11:57.800Z,26.25
2022-08-03T06:12:57.770Z,26.97
2022-08-03T06:13:57.767Z,27.67
2022-08-03T06:14:57.762Z,28.32
2022-08-03T06:15:57.768Z,29.01
2022-08-03T06:16:57.729Z,29.57
2022-08-03T06:18:01.516Z,30.02
2022-08-03T06:18:57.713Z,30.32
2022-08-03T06:19:57.712Z,30.54
2022-08-03T06:20:57.691Z,30.77
2022-08-03T06:21:58.699Z,30.91
2022-08-03T06:23:00.308Z,31.10
2022-08-03T06:23:57.650Z,31.10
2022-08-03T06:24:57.640Z,30.91
2022-08-03T06:25:57.630Z,30.96
2022-08-03T06:26:57.621Z,31.14
2022-08-03T06:27:57.631Z,31.07
2022-08-03T06:28:57.606Z,31.09
2022-08-03T06:29:57.596Z,31.24
2022-08-03T06:30:57.581Z,31.20
2022-08-03T06:31:57.570Z,31.21
2022-08-03T06:32:57.573Z,31.33
2022-08-03T06:34:33.480Z,31.52
2022-08-03T06:34:58.535Z,31.42
2022-08-03T06:35:57.533Z,31.71
2022-08-03T06:37:01.790Z,31.93
2022-08-03T06:37:57.514Z,32.31
2022-08-03T06:38:57.512Z,32.64
2022-08-03T06:39:57.486Z,32.87
2022-08-03T06:40:57.474Z,33.07
2022-08-03T06:41:57.463Z,33.05
2022-08-03T06:42:57.462Z,33.02
2022-08-03T06:44:03.829Z,33.09
2022-08-03T06:44:58.427Z,33.42
2022-08-03T06:45:57.426Z,33.68
2022-08-03T06:46:57.406Z,33.86
2022-08-03T06:47:57.397Z,33.92
2022-08-03T06:48:57.472Z,33.96
2022-08-03T06:50:17.020Z,34.11
2022-08-03T06:50:58.366Z,34.01
2022-08-03T06:52:04.631Z,34.14
2022-08-03T06:52:58.349Z,34.06
2022-08-03T06:53:57.338Z,33.87
2022-08-03T06:54:57.327Z,33.95
2022-08-03T06:55:57.339Z,34.01
2022-08-03T06:56:57.300Z,34.16
2022-08-03T06:57:59.942Z,34.23
2022-08-03T06:58:58.301Z,34.03
2022-08-03T07:00:06.231Z,34.21
2022-08-03T07:00:58.344Z,34.30
2022-08-03T07:01:57.251Z,34.29
2022-08-03T07:02:58.514Z,33.90
2022-08-03T07:03:57.232Z,33.95
2022-08-03T07:04:57.239Z,33.95
2022-08-03T07:05:57.214Z,34.05
2022-08-03T07:06:57.221Z,34.21
2022-08-03T07:07:57.193Z,34.25
2022-08-03T07:08:59.551Z,34.06
2022-08-03T07:09:58.185Z,33.83
2022-08-03T07:10:57.161Z,33.81
2022-08-03T07:11:57.181Z,34.17
2022-08-03T07:12:57.150Z,34.55
2022-08-03T07:13:57.135Z,35.18
2022-08-03T07:15:00.653Z,35.46
2022-08-03T07:15:57.125Z,35.66
2022-08-03T07:16:57.095Z,35.56
2022-08-03T07:17:57.117Z,35.36
2022-08-03T07:18:57.080Z,35.58
2022-08-03T07:19:57.102Z,35.86
2022-08-03T07:20:57.069Z,35.78
2022-08-03T07:22:02.073Z,35.51
2022-08-03T07:22:58.057Z,35.74
2022-08-03T07:23:57.029Z,36.14
2022-08-03T07:24:57.018Z,36.46
2022-08-03T07:25:57.010Z,36.84
2022-08-03T07:26:56.991Z,36.98
2022-08-03T07:27:56.989Z,36.81
2022-08-03T07:28:57.005Z,36.16
2022-08-03T07:29:56.969Z,36.01
2022-08-03T07:30:56.958Z,36.18
2022-08-03T07:31:56.950Z,36.12
2022-08-03T07:32:56.940Z,36.12
2022-08-03T07:33:56.951Z,36.21
2022-08-03T07:35:00.625Z,36.47
2022-08-03T07:35:56.910Z,36.54
2022-08-03T07:36:56.892Z,36.55
2022-08-03T07:37:56.890Z,36.59
2022-08-03T07:38:56.882Z,36.76
2022-08-03T07:39:57.285Z,37.02
2022-08-03T07:40:56.855Z,37.18
2022-08-03T07:41:56.852Z,37.33
2022-08-03T07:42:56.834Z,37.56
2022-08-03T07:43:56.834Z,37.67
2022-08-03T07:44:56.815Z,37.30
2022-08-03T07:45:56.834Z,37.47
2022-08-03T07:46:56.807Z,37.21
2022-08-03T07:47:56.784Z,36.88
2022-08-03T07:48:56.838Z,36.77
2022-08-03T07:49:56.773Z,36.68
2022-08-03T07:50:56.760Z,36.95
2022-08-03T07:51:56.777Z,36.76
2022-08-03T07:52:56.739Z,36.64
2022-08-03T07:53:56.736Z,36.74
2022-08-03T07:54:56.728Z,37.08
2022-08-03T07:55:56.716Z,37.18
2022-08-03T07:56:56.698Z,37.40
2022-08-03T07:57:56.827Z,37.83
2022-08-03T07:58:56.678Z,37.89
2022-08-03T08:00:02.162Z,37.72
2022-08-03T08:00:57.728Z,37.49
2022-08-03T08:01:56.667Z,37.78
2022-08-03T08:02:56.647Z,37.68
2022-08-03T08:03:56.651Z,37.14
2022-08-03T08:04:56.633Z,37.14
2022-08-03T08:05:56.617Z,37.51
2022-08-03T08:06:56.600Z,37.67
2022-08-03T08:07:56.603Z,37.20
2022-08-03T08:08:56.601Z,37.30
2022-08-03T08:09:56.584Z,37.21
2022-08-03T08:10:57.876Z,37.13
2022-08-03T08:11:56.561Z,37.03
2022-08-03T08:12:56.543Z,36.92
2022-08-03T08:13:56.542Z,36.88
2022-08-03T08:14:56.540Z,37.03
2022-08-03T08:15:56.524Z,37.20
2022-08-03T08:16:56.510Z,36.64
2022-08-03T08:17:56.503Z,36.45
2022-08-03T08:18:56.483Z,36.14
2022-08-03T08:19:56.504Z,35.88
2022-08-03T08:20:56.466Z,35.76
2022-08-03T08:22:02.303Z,36.25
2022-08-03T08:22:57.444Z,36.46
2022-08-03T08:23:57.835Z,36.12
2022-08-03T08:24:56.426Z,35.85
2022-08-03T08:25:56.443Z,35.55
2022-08-03T08:26:56.415Z,35.42
2022-08-03T08:28:31.034Z,35.33
2022-08-03T08:28:57.393Z,35.33
2022-08-03T08:30:00.568Z,35.17
2022-08-03T08:30:57.386Z,35.27
2022-08-03T08:31:56.368Z,35.48
2022-08-03T08:32:56.357Z,35.92
2022-08-03T08:34:04.769Z,36.30
2022-08-03T08:34:57.339Z,36.77
2022-08-03T08:35:56.318Z,37.15
2022-08-03T08:36:56.369Z,37.42
2022-08-03T08:37:56.308Z,37.68
2022-08-03T08:38:56.299Z,38.06
2022-08-03T08:39:56.289Z,37.97
2022-08-03T08:40:56.281Z,37.37
2022-08-03T08:41:56.261Z,36.95
2022-08-03T08:42:58.871Z,36.27
2022-08-03T08:43:59.957Z,35.86
2022-08-03T08:44:56.239Z,35.76
2022-08-03T08:45:56.232Z,35.63
2022-08-03T08:46:56.232Z,35.76
2022-08-03T08:48:00.827Z,35.74
2022-08-03T08:48:57.274Z,35.97
2022-08-03T08:50:09.365Z,36.62
2022-08-03T08:50:57.182Z,37.33
2022-08-03T08:52:00.884Z,37.90
2022-08-03T08:52:57.160Z,37.71
2022-08-03T08:53:56.175Z,37.35
2022-08-03T08:54:56.146Z,37.15
2022-08-03T08:55:57.904Z,37.20
2022-08-03T08:56:56.122Z,36.91
2022-08-03T08:57:56.105Z,36.43
2022-08-03T08:58:56.103Z,36.17
2022-08-03T08:59:57.375Z,36.47
2022-08-03T09:00:56.094Z,36.51
2022-08-03T09:01:56.065Z,36.45
2022-08-03T09:02:56.066Z,37.06
2022-08-03T09:03:56.045Z,37.64
2022-08-03T09:04:56.047Z,37.93
2022-08-03T09:05:56.479Z,37.67
2022-08-03T09:07:18.771Z,37.53
2022-08-03T09:07:57.006Z,37.39
2022-08-03T09:08:56.009Z,37.44
2022-08-03T09:10:11.239Z,37.56
2022-08-03T09:10:57.008Z,36.98
2022-08-03T09:12:09.011Z,37.06
2022-08-03T09:12:57.390Z,37.44
2022-08-03T09:13:55.958Z,37.48
2022-08-03T09:15:15.869Z,37.29
2022-08-03T09:16:00.775Z,37.63
2022-08-03T09:16:55.950Z,38.02
2022-08-03T09:17:55.912Z,38.01
2022-08-03T09:18:55.919Z,37.42
2022-08-03T09:20:03.540Z,36.99
2022-08-03T09:20:56.890Z,36.86
2022-08-03T09:21:55.881Z,36.96
2022-08-03T09:22:55.891Z,37.13
2022-08-03T09:24:01.436Z,37.44
2022-08-03T09:25:21.664Z,37.70
2022-08-03T09:25:56.842Z,37.97
2022-08-03T09:26:55.832Z,38.24
2022-08-03T09:27:55.851Z,38.45
2022-08-03T09:29:02.581Z,38.77
2022-08-03T09:29:56.803Z,38.97
2022-08-03T09:30:55.801Z,38.87
2022-08-03T09:31:55.802Z,38.61
2022-08-03T09:32:55.784Z,38.50
2022-08-03T09:33:55.792Z,38.45
2022-08-03T09:34:58.199Z,38.58
2022-08-03T09:35:57.771Z,38.89
2022-08-03T09:36:55.979Z,38.64
2022-08-03T09:38:12.251Z,38.67
2022-08-03T09:38:56.745Z,38.14
2022-08-03T09:39:55.714Z,37.71
2022-08-03T09:40:59.559Z,37.44
2022-08-03T09:41:55.694Z,37.45
2022-08-03T09:42:55.685Z,36.98
2022-08-03T09:43:55.674Z,36.59
2022-08-03T09:45:02.733Z,36.51
2022-08-03T09:45:55.655Z,36.58
2022-08-03T09:46:55.665Z,36.43
2022-08-03T09:47:55.645Z,36.39
2022-08-03T09:48:55.654Z,36.51
2022-08-03T09:49:55.639Z,36.79
2022-08-03T09:50:58.421Z,36.86
2022-08-03T09:52:33.144Z,36.59
2022-08-03T09:52:56.587Z,36.68
2022-08-03T09:53:58.510Z,37.03
2022-08-03T09:54:55.568Z,37.13
2022-08-03T09:56:36.451Z,36.80
2022-08-03T09:56:56.549Z,36.40
2022-08-03T09:57:55.539Z,36.01
2022-08-03T09:58:55.529Z,35.85
2022-08-03T10:00:04.767Z,35.92
2022-08-03T10:00:56.573Z,35.88
2022-08-03T10:01:55.498Z,35.44
2022-08-03T10:02:55.490Z,35.19
2022-08-03T10:04:04.099Z,35.05
2022-08-03T10:04:56.469Z,34.89
2022-08-03T10:05:59.519Z,34.93
2022-08-03T10:06:55.477Z,34.81
2022-08-03T10:07:55.448Z,34.60
2022-08-03T10:08:55.438Z,34.45
2022-08-03T10:09:55.413Z,34.38
2022-08-03T10:10:55.420Z,34.16
2022-08-03T10:11:55.393Z,34.24
2022-08-03T10:12:55.420Z,34.47
2022-08-03T10:14:01.327Z,34.62
2022-08-03T10:14:56.383Z,34.75
2022-08-03T10:16:22.504Z,34.77
2022-08-03T10:16:56.347Z,34.67
2022-08-03T10:17:55.335Z,34.21
2022-08-03T10:18:55.346Z,33.89
2022-08-03T10:19:55.313Z,33.71
2022-08-03T10:20:55.306Z,33.80
2022-08-03T10:21:55.286Z,34.01
2022-08-03T10:22:55.284Z,34.16
2022-08-03T10:23:55.267Z,34.13
2022-08-03T10:24:55.277Z,34.05
2022-08-03T10:25:55.246Z,34.13
2022-08-03T10:26:55.237Z,34.20
2022-08-03T10:27:55.229Z,34.32
2022-08-03T10:28:55.216Z,34.33
2022-08-03T10:29:55.227Z,34.35
2022-08-03T10:30:55.274Z,34.30
2022-08-03T10:31:58.167Z,34.17
2022-08-03T10:32:55.170Z,33.83
2022-08-03T10:33:55.158Z,33.57
2022-08-03T10:34:59.934Z,33.45
2022-08-03T10:35:56.160Z,33.57
2022-08-03T10:36:55.150Z,33.74
2022-08-03T10:37:57.146Z,33.86
2022-08-03T10:38:55.130Z,33.98
2022-08-03T10:39:55.091Z,34.06
2022-08-03T10:40:58.933Z,34.06
2022-08-03T10:41:55.093Z,34.06
2022-08-03T10:42:55.062Z,34.18
2022-08-03T10:43:55.042Z,34.35
2022-08-03T10:44:55.033Z,34.48
2022-08-03T10:45:55.023Z,34.39
2022-08-03T10:46:55.023Z,34.42
2022-08-03T10:47:55.052Z,34.39
2022-08-03T10:48:55.051Z,34.47
2022-08-03T10:49:55.047Z,34.35
2022-08-03T10:50:54.974Z,34.08
2022-08-03T10:51:54.962Z,33.83
2022-08-03T10:52:54.954Z,33.68
2022-08-03T10:53:55.766Z,33.62
2022-08-03T10:54:54.935Z,33.34
2022-08-03T10:55:54.930Z,33.14
2022-08-03T10:56:54.905Z,33.14
2022-08-03T10:57:56.200Z,33.17
2022-08-03T10:58:57.602Z,33.28
2022-08-03T10:59:54.875Z,33.19
2022-08-03T11:00:54.966Z,33.09
2022-08-03T11:01:58.233Z,33.14
2022-08-03T11:02:54.838Z,33.27
2022-08-03T11:03:54.828Z,33.27
2022-08-03T11:04:55.310Z,33.30
2022-08-03T11:05:54.809Z,33.11
2022-08-03T11:06:54.802Z,33.12
2022-08-03T11:07:54.806Z,33.31
2022-08-03T11:08:54.789Z,33.23
2022-08-03T11:09:54.791Z,33.24
2022-08-03T11:10:54.778Z,33.27
2022-08-03T11:11:54.751Z,33.30
2022-08-03T11:12:54.746Z,33.32
2022-08-03T11:13:54.732Z,33.43
2022-08-03T11:14:54.719Z,33.67
2022-08-03T11:15:59.737Z,33.98
2022-08-03T11:16:55.691Z,34.10
2022-08-03T11:17:55.933Z,33.98
2022-08-03T11:18:54.671Z,33.87
2022-08-03T11:19:57.477Z,33.77
2022-08-03T11:20:54.665Z,33.67
2022-08-03T11:21:54.664Z,33.67
2022-08-03T11:22:54.690Z,33.73
2022-08-03T11:24:04.082Z,33.86
2022-08-03T11:24:55.612Z,33.99
2022-08-03T11:25:55.456Z,34.02
2022-08-03T11:26:54.583Z,33.95
2022-08-03T11:27:54.594Z,33.87
2022-08-03T11:28:54.564Z,33.80
2022-08-03T11:29:54.557Z,33.74
2022-08-03T11:30:54.558Z,33.68
2022-08-03T11:31:54.534Z,33.83
2022-08-03T11:32:54.566Z,33.98
2022-08-03T11:33:54.508Z,34.11
2022-08-03T11:34:54.499Z,34.21
2022-08-03T11:35:54.487Z,34.32
2022-08-03T11:36:54.486Z,34.38
2022-08-03T11:38:03.194Z,34.42
2022-08-03T11:38:55.503Z,34.47
2022-08-03T11:39:54.449Z,34.58
2022-08-03T11:40:54.445Z,34.60
2022-08-03T11:41:54.438Z,34.54
2022-08-03T11:42:54.420Z,34.27
2022-08-03T11:43:54.408Z,34.20
2022-08-03T11:44:54.423Z,34.17
2022-08-03T11:45:54.386Z,33.98
2022-08-03T11:46:54.379Z,33.90
2022-08-03T11:47:54.369Z,33.86
2022-08-03T11:48:54.427Z,33.90
2022-08-03T11:49:54.350Z,33.83
2022-08-03T11:50:54.390Z,33.71
2022-08-03T11:51:54.330Z,33.76
2022-08-03T11:52:54.321Z,33.87
2022-08-03T11:53:54.313Z,33.92
2022-08-03T11:54:57.213Z,33.96
2022-08-03T11:55:54.285Z,33.99
2022-08-03T11:56:54.292Z,34.01
2022-08-03T11:59:01.582Z,34.01
2022-08-03T11:59:10.876Z,33.99
2022-08-03T11:59:55.251Z,34.08
2022-08-03T12:00:54.233Z,34.03
2022-08-03T12:01:54.267Z,33.89
2022-08-03T12:02:54.231Z,33.68
2022-08-03T12:03:54.199Z,33.59
2022-08-03T12:04:54.195Z,33.61
2022-08-03T12:05:54.811Z,33.76
2022-08-03T12:06:54.179Z,33.76
2022-08-03T12:08:04.458Z,33.57
2022-08-03T12:08:56.046Z,33.39
2022-08-03T12:09:54.137Z,33.40
2022-08-03T12:10:54.149Z,33.42
2022-08-03T12:12:00.415Z,33.53
2022-08-03T12:12:55.137Z,33.68
2022-08-03T12:14:10.447Z,33.80
2022-08-03T12:14:55.098Z,33.73
2022-08-03T12:15:54.078Z,33.73
2022-08-03T12:16:54.082Z,33.80
2022-08-03T12:17:57.710Z,33.74
2022-08-03T12:18:54.069Z,33.64
2022-08-03T12:19:54.039Z,33.62
2022-08-03T12:20:54.039Z,33.59
2022-08-03T12:21:56.553Z,33.65
2022-08-03T12:22:54.011Z,33.50
2022-08-03T12:23:54.019Z,33.37
2022-08-03T12:24:53.990Z,33.34
2022-08-03T12:25:53.981Z,33.42
2022-08-03T12:26:59.439Z,33.42
2022-08-03T12:27:54.965Z,33.36
2022-08-03T12:28:53.972Z,33.40
2022-08-03T12:29:58.129Z,33.42
2022-08-03T12:30:55.072Z,33.47
2022-08-03T12:31:53.925Z,33.65
2022-08-03T12:32:53.913Z,33.77
2022-08-03T12:33:53.900Z,33.80
2022-08-03T12:34:53.892Z,33.79
2022-08-03T12:35:53.903Z,33.79
2022-08-03T12:36:53.890Z,33.80
2022-08-03T12:37:53.864Z,33.86
2022-08-03T12:38:53.855Z,33.98
2022-08-03T12:40:01.722Z,34.02
2022-08-03T12:40:54.856Z,34.08
2022-08-03T12:41:53.818Z,34.08
2022-08-03T12:42:53.815Z,34.08
2022-08-03T12:43:53.797Z,34.13
2022-08-03T12:44:56.365Z,34.10
2022-08-03T12:45:53.790Z,33.89
2022-08-03T12:46:53.799Z,33.76
2022-08-03T12:47:53.765Z,33.77
2022-08-03T12:48:53.815Z,33.69
2022-08-03T12:49:53.747Z,33.67
2022-08-03T12:50:53.874Z,33.67
2022-08-03T12:51:53.729Z,33.61